sensor_id;sensor_type;location;lat;lon;timestamp;temperature;humidity
51559;DHT22;61650;48.882;2.092;2023-04-15T00:01:26;7.80;99.90
51559;DHT22;61650;48.882;2.092;2023-04-15T00:03:52;7.90;99.90
51559;DHT22;61650;48.882;2.092;2023-04-15T00:06:19;7.90;99.90
51559;DHT22;61650;48.882;2.092;2023-04-15T00:08:45;7.90;99.90
51559;DHT22;61650;48.882;2.092;2023-04-15T00:11:11;7.90;99.90
51559;DHT22;61650;48.882;2.092;2023-04-15T00:13:37;7.90;99.90
51559;DHT22;61650;48.882;2.092;2023-04-15T00:16:04;7.90;99.90
51559;DHT22;61650;48.882;2.092;2023-04-15T00:18:31;7.90;99.90
51559;DHT22;61650;48.882;2.092;2023-04-15T00:20:57;7.90;99.90
51559;DHT22;61650;48.882;2.092;2023-04-15T00:23:23;7.80;99.90
51559;DHT22;61650;48.882;2.092;2023-04-15T00:25:49;7.80;99.90
51559;DHT22;61650;48.882;2.092;2023-04-15T00:28:15;7.70;99.90
51559;DHT22;61650;48.882;2.092;2023-04-15T00:30:41;7.70;99.90
51559;DHT22;61650;48.882;2.092;2023-04-15T00:33:07;7.60;99.90
51559;DHT22;61650;48.882;2.092;2023-04-15T00:35:33;7.60;99.90
51559;DHT22;61650;48.882;2.092;2023-04-15T00:37:59;7.60;99.90
51559;DHT22;61650;48.882;2.092;2023-04-15T00:40:25;7.70;99.90
51559;DHT22;61650;48.882;2.092;2023-04-15T00:42:51;7.60;99.90
51559;DHT22;61650;48.882;2.092;2023-04-15T00:45:17;7.60;99.90
51559;DHT22;61650;48.882;2.092;2023-04-15T00:47:43;7.70;99.90
51559;DHT22;61650;48.882;2.092;2023-04-15T00:50:11;7.60;99.90
51559;DHT22;61650;48.882;2.092;2023-04-15T00:52:38;7.60;99.90
51559;DHT22;61650;48.882;2.092;2023-04-15T00:55:05;7.70;99.90
51559;DHT22;61650;48.882;2.092;2023-04-15T00:57:30;7.70;99.90
51559;DHT22;61650;48.882;2.092;2023-04-15T00:59:57;7.70;99.90
51559;DHT22;61650;48.882;2.092;2023-04-15T01:02:23;7.60;99.90
51559;DHT22;61650;48.882;2.092;2023-04-15T01:04:48;7.70;99.90
51559;DHT22;61650;48.882;2.092;2023-04-15T01:07:14;7.70;99.90
51559;DHT22;61650;48.882;2.092;2023-04-15T01:09:41;7.70;99.90
51559;DHT22;61650;48.882;2.092;2023-04-15T01:12:09;7.70;99.90
51559;DHT22;61650;48.882;2.092;2023-04-15T01:14:36;7.70;99.90
51559;DHT22;61650;48.882;2.092;2023-04-15T01:17:01;7.70;99.90
51559;DHT22;61650;48.882;2.092;2023-04-15T01:19:27;7.70;99.90
51559;DHT22;61650;48.882;2.092;2023-04-15T01:21:53;7.70;99.90
51559;DHT22;61650;48.882;2.092;2023-04-15T01:24:19;7.70;99.90
51559;DHT22;61650;48.882;2.092;2023-04-15T01:26:45;7.70;99.90
51559;DHT22;61650;48.882;2.092;2023-04-15T01:29:11;7.70;99.90
51559;DHT22;61650;48.882;2.092;2023-04-15T01:31:37;7.70;99.90
51559;DHT22;61650;48.882;2.092;2023-04-15T01:34:03;7.70;99.90
51559;DHT22;61650;48.882;2.092;2023-04-15T01:36:29;7.70;99.90
51559;DHT22;61650;48.882;2.092;2023-04-15T01:38:55;7.70;99.90
51559;DHT22;61650;48.882;2.092;2023-04-15T01:41:28;7.70;99.90
51559;DHT22;61650;48.882;2.092;2023-04-15T01:43:54;7.60;99.90
51559;DHT22;61650;48.882;2.092;2023-04-15T01:46:20;7.60;99.90
51559;DHT22;61650;48.882;2.092;2023-04-15T01:48:45;7.60;99.90
51559;DHT22;61650;48.882;2.092;2023-04-15T01:51:11;7.70;99.90
51559;DHT22;61650;48.882;2.092;2023-04-15T01:53:37;7.80;99.90
51559;DHT22;61650;48.882;2.092;2023-04-15T01:56:03;7.70;99.90
51559;DHT22;61650;48.882;2.092;2023-04-15T01:58:29;7.80;99.90
51559;DHT22;61650;48.882;2.092;2023-04-15T02:00:54;7.70;99.90
51559;DHT22;61650;48.882;2.092;2023-04-15T02:03:20;7.70;99.90
51559;DHT22;61650;48.882;2.092;2023-04-15T02:05:46;7.70;99.90
51559;DHT22;61650;48.882;2.092;2023-04-15T02:08:11;7.70;99.90
51559;DHT22;61650;48.882;2.092;2023-04-15T02:10:37;7.70;99.90
51559;DHT22;61650;48.882;2.092;2023-04-15T02:13:04;7.70;99.90
51559;DHT22;61650;48.882;2.092;2023-04-15T02:15:29;7.70;99.90
51559;DHT22;61650;48.882;2.092;2023-04-15T02:17:55;7.70;99.90
51559;DHT22;61650;48.882;2.092;2023-04-15T02:20:21;7.60;99.90
51559;DHT22;61650;48.882;2.092;2023-04-15T02:22:48;7.70;99.90
51559;DHT22;61650;48.882;2.092;2023-04-15T02:25:14;7.70;99.90
51559;DHT22;61650;48.882;2.092;2023-04-15T02:27:41;7.70;99.90
51559;DHT22;61650;48.882;2.092;2023-04-15T02:30:07;7.60;99.90
51559;DHT22;61650;48.882;2.092;2023-04-15T02:32:33;7.50;99.90
51559;DHT22;61650;48.882;2.092;2023-04-15T02:35:06;7.50;99.90
51559;DHT22;61650;48.882;2.092;2023-04-15T02:37:32;7.50;99.90
51559;DHT22;61650;48.882;2.092;2023-04-15T02:40:01;7.50;99.90
51559;DHT22;61650;48.882;2.092;2023-04-15T02:42:27;7.50;99.90
51559;DHT22;61650;48.882;2.092;2023-04-15T02:44:54;7.40;99.90
51559;DHT22;61650;48.882;2.092;2023-04-15T02:47:20;7.40;99.90
51559;DHT22;61650;48.882;2.092;2023-04-15T02:49:46;7.50;99.90
51559;DHT22;61650;48.882;2.092;2023-04-15T02:52:11;7.50;99.90
51559;DHT22;61650;48.882;2.092;2023-04-15T02:54:38;7.50;99.90
51559;DHT22;61650;48.882;2.092;2023-04-15T02:57:03;7.40;99.90
51559;DHT22;61650;48.882;2.092;2023-04-15T02:59:31;7.40;99.90
51559;DHT22;61650;48.882;2.092;2023-04-15T03:01:56;7.50;99.90
51559;DHT22;61650;48.882;2.092;2023-04-15T03:04:25;7.40;99.90
51559;DHT22;61650;48.882;2.092;2023-04-15T03:06:51;7.40;99.90
51559;DHT22;61650;48.882;2.092;2023-04-15T03:09:16;7.40;99.90
51559;DHT22;61650;48.882;2.092;2023-04-15T03:11:42;7.40;99.90
51559;DHT22;61650;48.882;2.092;2023-04-15T03:14:07;7.40;99.90
51559;DHT22;61650;48.882;2.092;2023-04-15T03:16:33;7.30;99.90
51559;DHT22;61650;48.882;2.092;2023-04-15T03:18:59;7.20;99.90
51559;DHT22;61650;48.882;2.092;2023-04-15T03:21:24;7.20;99.90
51559;DHT22;61650;48.882;2.092;2023-04-15T03:23:51;7.20;99.90
51559;DHT22;61650;48.882;2.092;2023-04-15T03:26:30;7.20;99.90
51559;DHT22;61650;48.882;2.092;2023-04-15T03:28:56;7.20;99.90
51559;DHT22;61650;48.882;2.092;2023-04-15T03:31:23;7.10;99.90
51559;DHT22;61650;48.882;2.092;2023-04-15T03:33:48;7.10;99.90
51559;DHT22;61650;48.882;2.092;2023-04-15T03:36:14;7.10;99.90
51559;DHT22;61650;48.882;2.092;2023-04-15T03:38:41;7.00;99.90
51559;DHT22;61650;48.882;2.092;2023-04-15T03:41:07;6.90;99.90
51559;DHT22;61650;48.882;2.092;2023-04-15T03:43:32;6.90;99.90
51559;DHT22;61650;48.882;2.092;2023-04-15T03:45:58;6.90;99.90
51559;DHT22;61650;48.882;2.092;2023-04-15T03:48:23;6.80;99.90
51559;DHT22;61650;48.882;2.092;2023-04-15T03:50:49;6.90;99.90
51559;DHT22;61650;48.882;2.092;2023-04-15T03:53:15;6.90;99.90
51559;DHT22;61650;48.882;2.092;2023-04-15T03:55:40;7.00;99.90
51559;DHT22;61650;48.882;2.092;2023-04-15T03:58:06;6.90;99.90
51559;DHT22;61650;48.882;2.092;2023-04-15T04:00:32;7.00;99.90
51559;DHT22;61650;48.882;2.092;2023-04-15T04:02:57;7.00;99.90
51559;DHT22;61650;48.882;2.092;2023-04-15T04:05:23;7.00;99.90
51559;DHT22;61650;48.882;2.092;2023-04-15T04:07:48;6.90;99.90
51559;DHT22;61650;48.882;2.092;2023-04-15T04:10:14;6.90;99.90
51559;DHT22;61650;48.882;2.092;2023-04-15T04:12:39;6.90;99.90
51559;DHT22;61650;48.882;2.092;2023-04-15T04:15:06;6.90;99.90
51559;DHT22;61650;48.882;2.092;2023-04-15T04:17:32;6.90;99.90
51559;DHT22;61650;48.882;2.092;2023-04-15T04:19:58;6.90;99.90
51559;DHT22;61650;48.882;2.092;2023-04-15T04:22:23;6.90;99.90
51559;DHT22;61650;48.882;2.092;2023-04-15T04:24:49;7.00;99.90
51559;DHT22;61650;48.882;2.092;2023-04-15T04:27:15;6.90;99.90
51559;DHT22;61650;48.882;2.092;2023-04-15T04:29:40;7.00;99.90
51559;DHT22;61650;48.882;2.092;2023-04-15T04:32:06;6.90;99.90
51559;DHT22;61650;48.882;2.092;2023-04-15T04:34:31;6.90;99.90
51559;DHT22;61650;48.882;2.092;2023-04-15T04:36:57;7.00;99.90
51559;DHT22;61650;48.882;2.092;2023-04-15T04:39:23;7.00;99.90
51559;DHT22;61650;48.882;2.092;2023-04-15T04:41:49;7.00;99.90
51559;DHT22;61650;48.882;2.092;2023-04-15T04:44:16;6.90;99.90
51559;DHT22;61650;48.882;2.092;2023-04-15T04:46:42;7.00;99.90
51559;DHT22;61650;48.882;2.092;2023-04-15T04:49:07;6.90;99.90
51559;DHT22;61650;48.882;2.092;2023-04-15T04:51:33;6.90;99.90
51559;DHT22;61650;48.882;2.092;2023-04-15T04:53:58;6.90;99.90
51559;DHT22;61650;48.882;2.092;2023-04-15T04:56:24;6.90;99.90
51559;DHT22;61650;48.882;2.092;2023-04-15T04:58:50;7.00;99.90
51559;DHT22;61650;48.882;2.092;2023-04-15T05:01:16;6.90;99.90
51559;DHT22;61650;48.882;2.092;2023-04-15T05:03:41;7.00;99.90
51559;DHT22;61650;48.882;2.092;2023-04-15T05:06:07;7.00;99.90
51559;DHT22;61650;48.882;2.092;2023-04-15T05:08:33;6.90;99.90
51559;DHT22;61650;48.882;2.092;2023-04-15T05:10:58;6.90;99.90
51559;DHT22;61650;48.882;2.092;2023-04-15T05:13:24;6.90;99.90
51559;DHT22;61650;48.882;2.092;2023-04-15T05:15:50;6.90;99.90
51559;DHT22;61650;48.882;2.092;2023-04-15T05:18:16;7.00;99.90
51559;DHT22;61650;48.882;2.092;2023-04-15T05:20:41;7.00;99.90
51559;DHT22;61650;48.882;2.092;2023-04-15T05:23:07;7.00;99.90
51559;DHT22;61650;48.882;2.092;2023-04-15T05:25:32;6.90;99.90
51559;DHT22;61650;48.882;2.092;2023-04-15T05:27:58;6.90;99.90
51559;DHT22;61650;48.882;2.092;2023-04-15T05:30:24;6.90;99.90
51559;DHT22;61650;48.882;2.092;2023-04-15T05:32:50;7.00;99.90
51559;DHT22;61650;48.882;2.092;2023-04-15T05:35:16;6.90;99.90
51559;DHT22;61650;48.882;2.092;2023-04-15T05:37:41;6.90;99.90
51559;DHT22;61650;48.882;2.092;2023-04-15T05:40:07;7.00;99.90
51559;DHT22;61650;48.882;2.092;2023-04-15T05:42:35;7.00;99.90
51559;DHT22;61650;48.882;2.092;2023-04-15T05:45:01;7.00;99.90
51559;DHT22;61650;48.882;2.092;2023-04-15T05:47:29;6.90;99.90
51559;DHT22;61650;48.882;2.092;2023-04-15T05:49:55;6.90;99.90
51559;DHT22;61650;48.882;2.092;2023-04-15T05:52:21;7.00;99.90
51559;DHT22;61650;48.882;2.092;2023-04-15T05:54:46;6.90;99.90
51559;DHT22;61650;48.882;2.092;2023-04-15T05:57:12;6.90;99.90
51559;DHT22;61650;48.882;2.092;2023-04-15T05:59:38;6.90;99.90
51559;DHT22;61650;48.882;2.092;2023-04-15T06:02:03;6.90;99.90
51559;DHT22;61650;48.882;2.092;2023-04-15T06:04:29;6.90;99.90
51559;DHT22;61650;48.882;2.092;2023-04-15T06:06:54;6.90;99.90
51559;DHT22;61650;48.882;2.092;2023-04-15T06:09:20;7.00;99.90
51559;DHT22;61650;48.882;2.092;2023-04-15T06:11:46;7.00;99.90
51559;DHT22;61650;48.882;2.092;2023-04-15T06:14:11;7.00;99.90
51559;DHT22;61650;48.882;2.092;2023-04-15T06:16:37;7.00;99.90
51559;DHT22;61650;48.882;2.092;2023-04-15T06:19:02;7.00;99.90
51559;DHT22;61650;48.882;2.092;2023-04-15T06:21:29;7.00;99.90
51559;DHT22;61650;48.882;2.092;2023-04-15T06:23:56;7.00;99.90
51559;DHT22;61650;48.882;2.092;2023-04-15T06:26:22;7.10;99.90
51559;DHT22;61650;48.882;2.092;2023-04-15T06:28:48;7.10;99.90
51559;DHT22;61650;48.882;2.092;2023-04-15T06:31:13;7.10;99.90
51559;DHT22;61650;48.882;2.092;2023-04-15T06:33:39;7.10;99.90
51559;DHT22;61650;48.882;2.092;2023-04-15T06:36:04;7.10;99.90
51559;DHT22;61650;48.882;2.092;2023-04-15T06:38:30;7.10;99.90
51559;DHT22;61650;48.882;2.092;2023-04-15T06:40:56;7.10;99.90
51559;DHT22;61650;48.882;2.092;2023-04-15T06:43:21;7.10;99.90
51559;DHT22;61650;48.882;2.092;2023-04-15T06:45:47;7.10;99.90
51559;DHT22;61650;48.882;2.092;2023-04-15T06:48:12;7.10;99.90
51559;DHT22;61650;48.882;2.092;2023-04-15T06:50:38;7.00;99.90
51559;DHT22;61650;48.882;2.092;2023-04-15T06:53:03;7.10;99.90
51559;DHT22;61650;48.882;2.092;2023-04-15T06:55:32;7.20;99.90
51559;DHT22;61650;48.882;2.092;2023-04-15T06:57:58;7.10;99.90
51559;DHT22;61650;48.882;2.092;2023-04-15T07:00:24;7.20;99.90
51559;DHT22;61650;48.882;2.092;2023-04-15T07:02:50;7.10;99.90
51559;DHT22;61650;48.882;2.092;2023-04-15T07:05:16;7.20;99.90
51559;DHT22;61650;48.882;2.092;2023-04-15T07:07:42;7.20;99.90
51559;DHT22;61650;48.882;2.092;2023-04-15T07:10:08;7.10;99.90
51559;DHT22;61650;48.882;2.092;2023-04-15T07:12:34;7.10;99.90
51559;DHT22;61650;48.882;2.092;2023-04-15T07:15:00;7.10;99.90
51559;DHT22;61650;48.882;2.092;2023-04-15T07:17:25;7.10;99.90
51559;DHT22;61650;48.882;2.092;2023-04-15T07:19:51;7.10;99.90
51559;DHT22;61650;48.882;2.092;2023-04-15T07:22:17;7.20;99.90
51559;DHT22;61650;48.882;2.092;2023-04-15T07:24:42;7.20;99.90
51559;DHT22;61650;48.882;2.092;2023-04-15T07:27:08;7.30;99.90
51559;DHT22;61650;48.882;2.092;2023-04-15T07:29:33;7.20;99.90
51559;DHT22;61650;48.882;2.092;2023-04-15T07:31:59;7.20;99.90
51559;DHT22;61650;48.882;2.092;2023-04-15T07:34:25;7.20;99.90
51559;DHT22;61650;48.882;2.092;2023-04-15T07:36:50;7.20;99.90
51559;DHT22;61650;48.882;2.092;2023-04-15T07:39:17;7.20;99.90
51559;DHT22;61650;48.882;2.092;2023-04-15T07:41:43;7.30;99.90
51559;DHT22;61650;48.882;2.092;2023-04-15T07:44:08;7.20;99.90
51559;DHT22;61650;48.882;2.092;2023-04-15T07:46:34;7.20;99.90
51559;DHT22;61650;48.882;2.092;2023-04-15T07:49:01;7.30;99.90
51559;DHT22;61650;48.882;2.092;2023-04-15T07:51:27;7.30;99.90
51559;DHT22;61650;48.882;2.092;2023-04-15T07:53:53;7.30;99.90
51559;DHT22;61650;48.882;2.092;2023-04-15T07:56:19;7.20;99.90
51559;DHT22;61650;48.882;2.092;2023-04-15T07:58:45;7.10;99.90
51559;DHT22;61650;48.882;2.092;2023-04-15T08:01:10;7.10;99.90
51559;DHT22;61650;48.882;2.092;2023-04-15T08:03:36;7.10;99.90
51559;DHT22;61650;48.882;2.092;2023-04-15T08:06:02;7.10;99.90
51559;DHT22;61650;48.882;2.092;2023-04-15T08:08:28;7.10;99.90
51559;DHT22;61650;48.882;2.092;2023-04-15T08:10:53;7.10;99.90
51559;DHT22;61650;48.882;2.092;2023-04-15T08:13:19;7.10;99.90
51559;DHT22;61650;48.882;2.092;2023-04-15T08:15:45;7.00;99.90
51559;DHT22;61650;48.882;2.092;2023-04-15T08:18:10;7.00;99.90
51559;DHT22;61650;48.882;2.092;2023-04-15T08:20:36;7.10;99.90
51559;DHT22;61650;48.882;2.092;2023-04-15T08:23:02;7.10;99.90
51559;DHT22;61650;48.882;2.092;2023-04-15T08:25:29;7.10;99.90
51559;DHT22;61650;48.882;2.092;2023-04-15T08:27:54;7.10;99.90
51559;DHT22;61650;48.882;2.092;2023-04-15T08:30:21;7.00;99.90
51559;DHT22;61650;48.882;2.092;2023-04-15T08:32:48;7.10;99.90
51559;DHT22;61650;48.882;2.092;2023-04-15T08:35:13;7.10;99.90
51559;DHT22;61650;48.882;2.092;2023-04-15T08:37:39;7.10;99.90
51559;DHT22;61650;48.882;2.092;2023-04-15T08:40:06;7.00;99.90
51559;DHT22;61650;48.882;2.092;2023-04-15T08:42:40;6.90;99.90
51559;DHT22;61650;48.882;2.092;2023-04-15T08:45:08;7.00;99.90
51559;DHT22;61650;48.882;2.092;2023-04-15T08:47:37;7.10;99.90
51559;DHT22;61650;48.882;2.092;2023-04-15T08:50:05;7.10;99.90
51559;DHT22;61650;48.882;2.092;2023-04-15T08:52:33;7.20;99.90
51559;DHT22;61650;48.882;2.092;2023-04-15T08:54:59;7.20;99.90
51559;DHT22;61650;48.882;2.092;2023-04-15T08:57:27;7.20;99.90
51559;DHT22;61650;48.882;2.092;2023-04-15T08:59:56;7.20;99.90
51559;DHT22;61650;48.882;2.092;2023-04-15T09:02:23;7.30;99.90
51559;DHT22;61650;48.882;2.092;2023-04-15T09:04:48;7.20;99.90
51559;DHT22;61650;48.882;2.092;2023-04-15T09:07:15;7.20;99.90
51559;DHT22;61650;48.882;2.092;2023-04-15T09:09:41;7.20;99.90
51559;DHT22;61650;48.882;2.092;2023-04-15T09:12:07;7.20;99.90
51559;DHT22;61650;48.882;2.092;2023-04-15T09:14:33;7.20;99.90
51559;DHT22;61650;48.882;2.092;2023-04-15T09:17:03;7.30;99.90
51559;DHT22;61650;48.882;2.092;2023-04-15T09:19:30;7.30;99.90
51559;DHT22;61650;48.882;2.092;2023-04-15T09:21:58;7.40;99.90
51559;DHT22;61650;48.882;2.092;2023-04-15T09:24:24;7.40;99.90
51559;DHT22;61650;48.882;2.092;2023-04-15T09:26:52;7.40;99.90
51559;DHT22;61650;48.882;2.092;2023-04-15T09:29:23;7.30;99.90
51559;DHT22;61650;48.882;2.092;2023-04-15T09:31:50;7.40;99.90
51559;DHT22;61650;48.882;2.092;2023-04-15T09:34:16;7.40;99.90
51559;DHT22;61650;48.882;2.092;2023-04-15T09:39:10;7.70;99.90
51559;DHT22;61650;48.882;2.092;2023-04-15T09:41:36;7.80;99.90
51559;DHT22;61650;48.882;2.092;2023-04-15T09:44:03;7.90;99.90
51559;DHT22;61650;48.882;2.092;2023-04-15T09:46:44;8.00;99.90
51559;DHT22;61650;48.882;2.092;2023-04-15T09:49:11;8.10;99.90
51559;DHT22;61650;48.882;2.092;2023-04-15T09:51:37;8.10;99.90
51559;DHT22;61650;48.882;2.092;2023-04-15T09:54:03;8.00;99.90
51559;DHT22;61650;48.882;2.092;2023-04-15T09:56:37;8.20;99.90
51559;DHT22;61650;48.882;2.092;2023-04-15T09:59:09;8.10;99.90
51559;DHT22;61650;48.882;2.092;2023-04-15T10:01:35;8.00;99.90
51559;DHT22;61650;48.882;2.092;2023-04-15T10:04:02;8.10;99.90
51559;DHT22;61650;48.882;2.092;2023-04-15T10:06:28;8.00;99.90
51559;DHT22;61650;48.882;2.092;2023-04-15T10:08:56;7.90;99.90
51559;DHT22;61650;48.882;2.092;2023-04-15T10:11:22;8.00;99.90
51559;DHT22;61650;48.882;2.092;2023-04-15T10:13:49;7.90;99.90
51559;DHT22;61650;48.882;2.092;2023-04-15T10:16:19;7.90;99.90
51559;DHT22;61650;48.882;2.092;2023-04-15T10:18:55;7.90;99.90
51559;DHT22;61650;48.882;2.092;2023-04-15T10:21:21;8.00;99.90
51559;DHT22;61650;48.882;2.092;2023-04-15T10:23:48;7.90;99.90
51559;DHT22;61650;48.882;2.092;2023-04-15T10:26:15;7.90;99.90
51559;DHT22;61650;48.882;2.092;2023-04-15T10:28:42;7.90;99.90
51559;DHT22;61650;48.882;2.092;2023-04-15T10:31:08;8.00;99.90
51559;DHT22;61650;48.882;2.092;2023-04-15T10:33:36;8.10;99.90
51559;DHT22;61650;48.882;2.092;2023-04-15T10:36:03;8.20;99.90
51559;DHT22;61650;48.882;2.092;2023-04-15T10:38:40;8.30;99.90
51559;DHT22;61650;48.882;2.092;2023-04-15T10:44:08;8.10;99.90
51559;DHT22;61650;48.882;2.092;2023-04-15T10:46:44;8.10;99.90
51559;DHT22;61650;48.882;2.092;2023-04-15T10:49:23;8.10;99.90
51559;DHT22;61650;48.882;2.092;2023-04-15T10:51:56;8.20;99.90
51559;DHT22;61650;48.882;2.092;2023-04-15T11:00:00;8.30;99.90
51559;DHT22;61650;48.882;2.092;2023-04-15T11:05:05;8.30;99.90
51559;DHT22;61650;48.882;2.092;2023-04-15T11:07:51;8.30;99.90
51559;DHT22;61650;48.882;2.092;2023-04-15T11:12:45;8.30;99.90
51559;DHT22;61650;48.882;2.092;2023-04-15T11:15:43;8.30;99.90
51559;DHT22;61650;48.882;2.092;2023-04-15T11:18:24;8.50;99.90
51559;DHT22;61650;48.882;2.092;2023-04-15T11:20:55;8.70;99.90
51559;DHT22;61650;48.882;2.092;2023-04-15T11:23:38;8.70;99.90
51559;DHT22;61650;48.882;2.092;2023-04-15T11:26:06;8.70;99.90
51559;DHT22;61650;48.882;2.092;2023-04-15T11:28:37;8.60;99.90
51559;DHT22;61650;48.882;2.092;2023-04-15T11:31:06;8.60;99.90
51559;DHT22;61650;48.882;2.092;2023-04-15T11:33:33;8.70;99.90
51559;DHT22;61650;48.882;2.092;2023-04-15T11:35:59;8.80;99.90
51559;DHT22;61650;48.882;2.092;2023-04-15T11:38:25;8.80;99.90
51559;DHT22;61650;48.882;2.092;2023-04-15T11:40:51;8.80;99.90
51559;DHT22;61650;48.882;2.092;2023-04-15T11:43:17;8.80;99.90
51559;DHT22;61650;48.882;2.092;2023-04-15T11:45:49;9.00;99.90
51559;DHT22;61650;48.882;2.092;2023-04-15T11:48:16;9.10;99.90
51559;DHT22;61650;48.882;2.092;2023-04-15T11:50:41;9.30;99.90
51559;DHT22;61650;48.882;2.092;2023-04-15T11:53:09;9.50;99.90
51559;DHT22;61650;48.882;2.092;2023-04-15T11:55:43;9.60;99.90
51559;DHT22;61650;48.882;2.092;2023-04-15T12:00:45;9.40;99.90
51559;DHT22;61650;48.882;2.092;2023-04-15T12:03:22;9.40;99.90
51559;DHT22;61650;48.882;2.092;2023-04-15T12:11:34;9.30;99.90
51559;DHT22;61650;48.882;2.092;2023-04-15T12:14:04;9.50;99.90
51559;DHT22;61650;48.882;2.092;2023-04-15T12:16:31;9.60;99.90
51559;DHT22;61650;48.882;2.092;2023-04-15T12:18:58;9.70;99.90
51559;DHT22;61650;48.882;2.092;2023-04-15T12:21:26;10.00;99.90
51559;DHT22;61650;48.882;2.092;2023-04-15T12:23:56;10.20;99.90
51559;DHT22;61650;48.882;2.092;2023-04-15T12:26:50;10.40;99.90
51559;DHT22;61650;48.882;2.092;2023-04-15T12:29:15;10.30;99.90
51559;DHT22;61650;48.882;2.092;2023-04-15T12:31:52;10.10;99.90
51559;DHT22;61650;48.882;2.092;2023-04-15T12:34:32;10.10;99.90
51559;DHT22;61650;48.882;2.092;2023-04-15T12:36:59;10.00;99.90
51559;DHT22;61650;48.882;2.092;2023-04-15T12:39:27;9.80;99.90
51559;DHT22;61650;48.882;2.092;2023-04-15T12:41:53;9.50;99.90
51559;DHT22;61650;48.882;2.092;2023-04-15T12:44:21;9.50;99.90
51559;DHT22;61650;48.882;2.092;2023-04-15T12:46:49;9.50;99.90
51559;DHT22;61650;48.882;2.092;2023-04-15T12:49:14;9.50;99.90
51559;DHT22;61650;48.882;2.092;2023-04-15T12:51:41;9.60;99.90
51559;DHT22;61650;48.882;2.092;2023-04-15T12:54:06;9.70;99.90
51559;DHT22;61650;48.882;2.092;2023-04-15T12:56:32;9.70;99.90
51559;DHT22;61650;48.882;2.092;2023-04-15T12:58:58;9.70;99.90
51559;DHT22;61650;48.882;2.092;2023-04-15T13:01:24;9.60;99.90
51559;DHT22;61650;48.882;2.092;2023-04-15T13:03:52;9.50;99.90
51559;DHT22;61650;48.882;2.092;2023-04-15T13:06:18;9.50;99.90
51559;DHT22;61650;48.882;2.092;2023-04-15T13:08:44;9.60;99.90
51559;DHT22;61650;48.882;2.092;2023-04-15T13:11:09;9.80;99.90
51559;DHT22;61650;48.882;2.092;2023-04-15T13:13:35;9.80;99.90
51559;DHT22;61650;48.882;2.092;2023-04-15T13:16:01;9.70;99.90
51559;DHT22;61650;48.882;2.092;2023-04-15T13:18:26;9.70;99.90
51559;DHT22;61650;48.882;2.092;2023-04-15T13:20:53;9.70;99.90
51559;DHT22;61650;48.882;2.092;2023-04-15T13:23:22;9.70;99.90
51559;DHT22;61650;48.882;2.092;2023-04-15T13:25:51;9.70;99.90
51559;DHT22;61650;48.882;2.092;2023-04-15T13:28:26;9.70;99.90
51559;DHT22;61650;48.882;2.092;2023-04-15T13:30:51;9.70;99.90
51559;DHT22;61650;48.882;2.092;2023-04-15T13:33:17;9.90;99.90
51559;DHT22;61650;48.882;2.092;2023-04-15T13:35:43;9.90;99.90
51559;DHT22;61650;48.882;2.092;2023-04-15T13:38:11;9.80;99.90
51559;DHT22;61650;48.882;2.092;2023-04-15T13:40:36;9.80;99.90
51559;DHT22;61650;48.882;2.092;2023-04-15T13:43:02;9.90;99.90
51559;DHT22;61650;48.882;2.092;2023-04-15T13:45:28;9.80;99.90
51559;DHT22;61650;48.882;2.092;2023-04-15T13:47:55;9.80;99.90
51559;DHT22;61650;48.882;2.092;2023-04-15T13:50:21;9.80;99.90
51559;DHT22;61650;48.882;2.092;2023-04-15T13:52:47;9.80;99.90
51559;DHT22;61650;48.882;2.092;2023-04-15T13:55:13;9.80;99.90
51559;DHT22;61650;48.882;2.092;2023-04-15T13:57:38;9.70;99.90
51559;DHT22;61650;48.882;2.092;2023-04-15T14:00:04;9.70;99.90
51559;DHT22;61650;48.882;2.092;2023-04-15T14:02:30;9.70;99.90
51559;DHT22;61650;48.882;2.092;2023-04-15T14:04:56;9.70;99.90
51559;DHT22;61650;48.882;2.092;2023-04-15T14:07:22;9.80;99.90
51559;DHT22;61650;48.882;2.092;2023-04-15T14:09:47;9.90;99.90
51559;DHT22;61650;48.882;2.092;2023-04-15T14:12:13;9.90;99.90
51559;DHT22;61650;48.882;2.092;2023-04-15T14:14:39;10.00;99.90
51559;DHT22;61650;48.882;2.092;2023-04-15T14:17:05;10.10;99.90
51559;DHT22;61650;48.882;2.092;2023-04-15T14:19:32;10.10;99.90
51559;DHT22;61650;48.882;2.092;2023-04-15T14:21:58;10.20;99.90
51559;DHT22;61650;48.882;2.092;2023-04-15T14:24:23;10.30;99.90
51559;DHT22;61650;48.882;2.092;2023-04-15T14:26:49;10.50;99.90
51559;DHT22;61650;48.882;2.092;2023-04-15T14:29:15;10.80;99.90
51559;DHT22;61650;48.882;2.092;2023-04-15T14:31:41;11.20;99.90
51559;DHT22;61650;48.882;2.092;2023-04-15T14:34:09;11.50;99.90
51559;DHT22;61650;48.882;2.092;2023-04-15T14:36:34;11.50;99.90
51559;DHT22;61650;48.882;2.092;2023-04-15T14:39:00;11.60;99.90
51559;DHT22;61650;48.882;2.092;2023-04-15T14:41:26;11.60;99.90
51559;DHT22;61650;48.882;2.092;2023-04-15T14:43:51;11.50;99.90
51559;DHT22;61650;48.882;2.092;2023-04-15T14:46:17;11.50;99.90
51559;DHT22;61650;48.882;2.092;2023-04-15T14:48:42;11.60;99.90
51559;DHT22;61650;48.882;2.092;2023-04-15T14:51:08;11.70;99.90
51559;DHT22;61650;48.882;2.092;2023-04-15T14:53:34;11.80;99.90
51559;DHT22;61650;48.882;2.092;2023-04-15T14:55:59;12.00;99.90
51559;DHT22;61650;48.882;2.092;2023-04-15T14:58:25;12.20;99.90
51559;DHT22;61650;48.882;2.092;2023-04-15T15:00:50;12.40;99.90
51559;DHT22;61650;48.882;2.092;2023-04-15T15:03:16;12.50;99.90
51559;DHT22;61650;48.882;2.092;2023-04-15T15:05:44;12.40;99.90
51559;DHT22;61650;48.882;2.092;2023-04-15T15:08:10;12.20;99.90
51559;DHT22;61650;48.882;2.092;2023-04-15T15:10:39;12.10;99.90
51559;DHT22;61650;48.882;2.092;2023-04-15T15:13:07;12.00;99.90
51559;DHT22;61650;48.882;2.092;2023-04-15T15:15:35;12.00;99.90
51559;DHT22;61650;48.882;2.092;2023-04-15T15:18:01;11.90;99.90
51559;DHT22;61650;48.882;2.092;2023-04-15T15:20:27;11.70;99.90
51559;DHT22;61650;48.882;2.092;2023-04-15T15:22:53;11.80;99.90
51559;DHT22;61650;48.882;2.092;2023-04-15T15:25:18;11.80;99.90
51559;DHT22;61650;48.882;2.092;2023-04-15T15:27:44;11.80;99.90
51559;DHT22;61650;48.882;2.092;2023-04-15T15:30:10;11.80;98.70
51559;DHT22;61650;48.882;2.092;2023-04-15T15:32:41;11.90;98.90
51559;DHT22;61650;48.882;2.092;2023-04-15T15:35:07;11.80;99.30
51559;DHT22;61650;48.882;2.092;2023-04-15T15:37:34;11.70;92.30
51559;DHT22;61650;48.882;2.092;2023-04-15T15:40:00;11.60;99.90
51559;DHT22;61650;48.882;2.092;2023-04-15T15:42:26;11.70;99.90
51559;DHT22;61650;48.882;2.092;2023-04-15T15:44:55;11.80;99.90
51559;DHT22;61650;48.882;2.092;2023-04-15T15:47:21;12.00;99.90
51559;DHT22;61650;48.882;2.092;2023-04-15T15:49:46;12.00;99.90
51559;DHT22;61650;48.882;2.092;2023-04-15T15:52:12;12.00;98.20
51559;DHT22;61650;48.882;2.092;2023-04-15T15:54:41;12.00;99.90
51559;DHT22;61650;48.882;2.092;2023-04-15T15:57:07;11.90;96.10
51559;DHT22;61650;48.882;2.092;2023-04-15T15:59:32;11.70;99.90
51559;DHT22;61650;48.882;2.092;2023-04-15T16:01:58;11.60;99.90
51559;DHT22;61650;48.882;2.092;2023-04-15T16:04:24;11.60;99.90
51559;DHT22;61650;48.882;2.092;2023-04-15T16:06:50;11.70;99.90